createdAt,value
2023-04-20T00:02:31.861Z,100873.13
2023-04-20T00:06:34.438Z,100880.97
2023-04-20T00:10:36.843Z,100862.84
2023-04-20T00:14:38.936Z,100852.66
2023-04-20T00:18:41.280Z,100863.28
2023-04-20T00:22:43.463Z,100865.69
2023-04-20T00:26:45.625Z,100857.75
2023-04-20T00:30:48.432Z,100870.63
2023-04-20T00:34:50.731Z,100880.13
2023-04-20T00:38:52.890Z,100883.69
2023-04-20T00:42:56.229Z,100885.94
2023-04-20T00:46:59.587Z,100888.84
2023-04-20T00:51:02.471Z,100889.47
2023-04-20T00:55:06.180Z,100894.09
2023-04-20T00:59:08.621Z,100901.50
2023-04-20T01:03:11.088Z,100895.19
2023-04-20T01:07:13.729Z,100901.50
2023-04-20T01:11:17.064Z,100901.66
2023-04-20T01:15:19.306Z,100900.28
2023-04-20T01:19:21.910Z,100898.66
2023-04-20T01:23:24.792Z,100899.28
2023-04-20T01:27:26.865Z,100904.22
2023-04-20T01:31:28.952Z,100899.03
2023-04-20T01:35:33.440Z,100902.34
2023-04-20T01:39:38.952Z,100900.59
2023-04-20T01:43:41.319Z,100905.47
2023-04-20T01:47:43.397Z,100899.56
2023-04-20T01:51:45.502Z,100900.53
2023-04-20T01:55:48.736Z,100899.34
2023-04-20T01:59:50.865Z,100895.97
2023-04-20T02:03:53.239Z,100889.72
2023-04-20T02:07:56.458Z,100898.13
2023-04-20T02:11:58.255Z,100897.03
2023-04-20T02:16:00.211Z,100902.75
2023-04-20T02:20:04.568Z,100906.38
2023-04-20T02:24:06.972Z,100914.50
2023-04-20T02:28:09.004Z,100909.63
2023-04-20T02:32:13.749Z,100903.91
2023-04-20T02:36:17.230Z,100894.09
2023-04-20T02:40:19.335Z,100899.03
2023-04-20T02:44:21.480Z,100897.97
2023-04-20T02:48:24.441Z,100904.28
2023-04-20T02:52:26.597Z,100908.78
2023-04-20T02:56:32.320Z,100898.66
2023-04-20T03:00:38.817Z,100899.66
2023-04-20T03:04:43.719Z,100912.47
2023-04-20T03:08:56.567Z,100908.69
2023-04-20T03:13:18.938Z,100904.91
2023-04-20T03:17:36.708Z,100906.00
2023-04-20T03:21:39.757Z,100905.84
2023-04-20T03:25:42.705Z,100919.34
2023-04-20T03:29:52.614Z,100901.50
2023-04-20T03:33:54.608Z,100906.53
2023-04-20T03:37:56.723Z,100891.69
2023-04-20T03:41:59.238Z,100895.38
2023-04-20T03:46:01.245Z,100907.97
2023-04-20T03:50:04.280Z,100906.16
2023-04-20T03:54:07.103Z,100911.72
2023-04-20T03:58:09.505Z,100921.00
2023-04-20T04:02:28.266Z,100917.38
2023-04-20T04:06:32.134Z,100916.38
2023-04-20T04:10:33.866Z,100919.78
2023-04-20T04:14:36.067Z,100924.97
2023-04-20T04:18:43.565Z,100926.50
2023-04-20T04:22:45.701Z,100931.00
2023-04-20T04:27:07.031Z,100937.13
2023-04-20T04:31:14.711Z,100933.63
2023-04-20T04:35:17.904Z,100934.63
2023-04-20T04:39:20.916Z,100930.06
2023-04-20T04:43:35.083Z,100937.13
2023-04-20T04:47:54.024Z,100922.28
2023-04-20T04:51:56.262Z,100931.53
2023-04-20T04:55:58.444Z,100944.19
2023-04-20T05:00:00.598Z,100946.59
2023-04-20T05:04:02.874Z,100952.72
2023-04-20T05:08:05.534Z,100965.16
2023-04-20T05:12:07.773Z,100965.00
2023-04-20T05:16:09.890Z,100962.81
2023-04-20T05:20:12.347Z,100997.59
2023-04-20T05:24:14.661Z,101011.69
2023-04-20T05:28:16.769Z,101010.81
2023-04-20T05:32:18.868Z,101011.47
2023-04-20T05:36:21.013Z,101028.66
2023-04-20T05:40:22.988Z,101032.19
2023-04-20T05:44:25.107Z,101031.94
2023-04-20T05:48:29.805Z,101030.50
2023-04-20T05:52:32.143Z,101038.09
2023-04-20T05:56:34.235Z,101042.56
2023-04-20T06:00:36.370Z,101061.16
2023-04-20T06:04:38.805Z,101065.19
2023-04-20T06:08:41.138Z,101057.41
2023-04-20T06:12:43.129Z,101058.16
2023-04-20T06:16:45.240Z,101060.63
2023-04-20T06:20:47.325Z,101072.44
2023-04-20T06:24:49.408Z,101071.72
2023-04-20T06:28:53.051Z,101075.31
2023-04-20T06:32:55.257Z,101066.63
2023-04-20T06:36:57.416Z,101073.00
2023-04-20T06:41:02.115Z,101077.88
2023-04-20T06:45:06.399Z,101073.56
2023-04-20T06:49:08.403Z,101073.16
2023-04-20T06:53:10.515Z,101074.72
2023-04-20T06:57:12.583Z,101081.75
2023-04-20T07:01:14.631Z,101086.53
2023-04-20T07:05:18.093Z,101086.81
2023-04-20T07:09:20.868Z,101085.84
2023-04-20T07:13:22.951Z,101094.69
2023-04-20T07:17:28.106Z,101090.22
2023-04-20T07:21:31.552Z,101097.28
2023-04-20T07:25:33.869Z,101092.34
2023-04-20T07:29:36.159Z,101086.59
2023-04-20T07:33:39.590Z,101095.78
2023-04-20T07:37:41.697Z,101089.25
2023-04-20T07:41:43.959Z,101088.78
2023-04-20T07:45:46.109Z,101092.34
2023-04-20T07:49:48.202Z,101096.13
2023-04-20T07:53:50.294Z,101093.97
2023-04-20T07:57:52.370Z,101088.75
2023-04-20T08:02:02.563Z,101099.97
2023-04-20T08:06:04.815Z,101090.09
2023-04-20T08:10:07.819Z,101099.72
2023-04-20T08:14:09.786Z,101095.50
2023-04-20T08:18:11.905Z,101091.59
2023-04-20T08:22:14.198Z,101102.69
2023-04-20T08:26:17.249Z,101104.06
2023-04-20T08:30:19.200Z,101102.41
2023-04-20T08:34:21.746Z,101096.25
2023-04-20T08:38:33.454Z,101097.91
2023-04-20T08:42:36.378Z,101100.28
2023-04-20T08:46:41.233Z,101094.41
2023-04-20T08:50:43.479Z,101108.00
2023-04-20T08:54:55.954Z,101101.34
2023-04-20T08:58:58.905Z,101100.44
2023-04-20T09:03:01.982Z,101098.31
2023-04-20T09:07:04.453Z,101092.38
2023-04-20T09:11:07.278Z,101090.78
2023-04-20T09:15:10.952Z,101090.72
2023-04-20T09:19:14.058Z,101089.44
2023-04-20T09:23:17.150Z,101084.25
2023-04-20T09:27:19.655Z,101092.09
2023-04-20T09:31:22.802Z,101088.00
2023-04-20T09:35:25.020Z,101083.56
2023-04-20T09:39:27.138Z,101083.72
2023-04-20T09:43:30.638Z,101084.38
2023-04-20T09:47:36.800Z,101096.91
2023-04-20T09:51:47.016Z,101090.69
2023-04-20T09:55:51.252Z,101093.28
2023-04-20T09:59:54.493Z,101086.00
2023-04-20T10:03:57.580Z,101082.56
2023-04-20T10:08:01.276Z,101079.97
2023-04-20T10:12:08.105Z,101087.13
2023-04-20T10:16:18.321Z,101072.88
2023-04-20T10:20:26.474Z,101074.53
2023-04-20T10:24:32.195Z,101074.50
2023-04-20T10:28:41.863Z,101068.06
2023-04-20T10:32:43.944Z,101068.88
2023-04-20T10:36:46.176Z,101071.69
2023-04-20T10:40:48.317Z,101055.56
2023-04-20T10:44:51.889Z,101060.19
2023-04-20T10:48:58.065Z,101061.19
2023-04-20T10:53:00.578Z,101056.41
2023-04-20T10:57:03.242Z,101053.44
2023-04-20T11:01:05.893Z,101051.03
2023-04-20T11:05:12.463Z,101053.81
2023-04-20T11:09:23.727Z,101053.16
2023-04-20T11:13:29.148Z,101045.75
2023-04-20T11:17:33.580Z,101044.88
2023-04-20T11:21:41.513Z,101032.66
2023-04-20T11:25:53.743Z,101034.16
2023-04-20T11:29:58.247Z,101038.84
2023-04-20T11:34:00.596Z,101044.66
2023-04-20T11:38:02.941Z,101051.59
2023-04-20T11:42:05.812Z,101037.34
2023-04-20T11:46:18.719Z,101030.81
2023-04-20T11:50:21.961Z,101034.31
2023-04-20T11:54:24.489Z,101021.09
2023-04-20T11:58:27.152Z,101021.25
2023-04-20T12:02:29.387Z,101029.59
2023-04-20T12:06:34.462Z,101036.88
2023-04-20T12:10:36.454Z,101031.22
2023-04-20T12:14:38.574Z,101024.53
2023-04-20T12:18:41.375Z,101015.25
2023-04-20T12:22:43.453Z,101016.53
2023-04-20T12:26:45.966Z,101014.13
2023-04-20T12:30:48.057Z,101012.84
2023-04-20T12:34:50.085Z,101009.66
2023-04-20T12:38:52.570Z,101010.41
2023-04-20T12:42:54.632Z,101010.03
2023-04-20T12:46:56.691Z,100998.44
2023-04-20T12:50:58.879Z,100995.78
2023-04-20T12:55:01.763Z,100991.28
2023-04-20T12:59:03.590Z,100994.22
2023-04-20T13:03:05.810Z,100987.84
2023-04-20T13:07:08.284Z,100979.81
2023-04-20T13:11:15.534Z,100983.00
2023-04-20T13:15:31.740Z,100979.66
2023-04-20T13:19:40.084Z,100982.59
2023-04-20T13:23:42.198Z,100983.47
2023-04-20T13:27:44.532Z,100978.22
2023-04-20T13:31:48.401Z,100972.81
2023-04-20T13:35:50.735Z,100968.41
2023-04-20T13:39:52.739Z,100970.56
2023-04-20T13:43:57.974Z,100960.66
2023-04-20T13:48:00.073Z,100961.22
2023-04-20T13:52:02.646Z,100975.66
2023-04-20T13:56:05.213Z,100967.16
2023-04-20T14:00:08.348Z,100975.06
2023-04-20T14:04:10.832Z,100983.50
2023-04-20T14:08:13.825Z,100982.03
2023-04-20T14:12:16.150Z,100979.16
2023-04-20T14:16:18.461Z,100970.63
2023-04-20T14:20:20.619Z,100966.09
2023-04-20T14:24:22.884Z,100945.03
2023-04-20T14:28:24.974Z,100966.00
2023-04-20T14:32:27.425Z,100962.31
2023-04-20T14:36:30.601Z,100968.59
2023-04-20T14:40:32.791Z,100967.81
2023-04-20T14:44:34.805Z,100974.72
2023-04-20T14:48:38.187Z,100964.16
2023-04-20T14:52:40.225Z,100966.78
2023-04-20T14:56:42.340Z,100959.16
2023-04-20T15:00:44.969Z,100964.41
2023-04-20T15:04:47.335Z,100958.81
2023-04-20T15:08:49.711Z,100968.41
2023-04-20T15:12:51.986Z,100949.50
2023-04-20T15:16:54.289Z,100962.78
2023-04-20T15:20:56.440Z,100964.91
2023-04-20T15:24:58.400Z,100963.88
2023-04-20T15:29:00.546Z,100960.06
2023-04-20T15:33:04.396Z,100957.44
2023-04-20T15:37:07.766Z,100957.06
2023-04-20T15:41:09.819Z,100959.88
2023-04-20T15:45:11.943Z,100960.13
2023-04-20T15:49:13.977Z,100954.19
2023-04-20T15:53:16.037Z,100954.94
2023-04-20T15:57:18.033Z,100957.69
2023-04-20T16:01:20.591Z,100969.38
2023-04-20T16:05:22.846Z,100969.63
2023-04-20T16:09:25.075Z,100975.22
2023-04-20T16:13:27.099Z,100967.78
2023-04-20T16:17:29.381Z,100967.19
2023-04-20T16:21:31.885Z,100974.00
2023-04-20T16:25:34.485Z,100969.13
2023-04-20T16:29:36.533Z,100971.28
2023-04-20T16:33:38.659Z,100968.16
2023-04-20T16:37:40.687Z,100968.53
2023-04-20T16:41:42.767Z,100975.66
2023-04-20T16:45:44.757Z,100980.50
2023-04-20T16:49:47.349Z,100972.91
2023-04-20T16:53:49.552Z,100990.78
2023-04-20T16:57:51.735Z,100989.09
2023-04-20T17:01:54.191Z,100987.53
2023-04-20T17:05:56.273Z,100994.78
2023-04-20T17:09:58.508Z,101003.41
2023-04-20T17:14:00.502Z,101010.47
2023-04-20T17:18:02.574Z,101012.75
2023-04-20T17:22:04.875Z,101014.25
2023-04-20T17:26:06.989Z,101022.13
2023-04-20T17:30:09.644Z,101019.19
2023-04-20T17:34:11.663Z,101023.09
2023-04-20T17:38:13.809Z,101026.19
2023-04-20T17:42:16.943Z,101030.88
2023-04-20T17:46:19.075Z,101034.31
2023-04-20T17:50:22.567Z,101033.63
2023-04-20T17:54:25.740Z,101027.00
2023-04-20T17:58:27.452Z,101033.97
2023-04-20T18:02:29.558Z,101042.53
2023-04-20T18:06:33.236Z,101041.97
2023-04-20T18:10:35.402Z,101049.28
2023-04-20T18:14:39.152Z,101046.47
2023-04-20T18:18:41.204Z,101049.25
2023-04-20T18:22:43.328Z,101045.16
2023-04-20T18:26:46.025Z,101055.88
2023-04-20T18:30:48.420Z,101048.84
2023-04-20T18:34:50.682Z,101055.75
2023-04-20T18:38:54.054Z,101058.91
2023-04-20T18:42:57.312Z,101047.06
2023-04-20T18:46:59.813Z,101053.31
2023-04-20T18:51:02.073Z,101062.44
2023-04-20T18:55:04.313Z,101064.47
2023-04-20T18:59:08.480Z,101075.25
2023-04-20T19:03:11.004Z,101069.47
2023-04-20T19:07:13.232Z,101071.47
2023-04-20T19:11:15.534Z,101073.47
2023-04-20T19:15:22.551Z,101080.13
2023-04-20T19:19:24.561Z,101076.97
2023-04-20T19:23:26.640Z,101076.75
2023-04-20T19:27:28.698Z,101075.72
2023-04-20T19:31:36.770Z,101078.09
2023-04-20T19:35:39.026Z,101082.28
2023-04-20T19:39:41.053Z,101069.06
2023-04-20T19:43:43.046Z,101075.72
2023-04-20T19:47:45.536Z,101077.88
2023-04-20T19:51:47.718Z,101074.50
2023-04-20T19:55:49.881Z,101084.66
2023-04-20T19:59:52.189Z,101082.06
2023-04-20T20:03:54.516Z,101076.09
2023-04-20T20:07:56.661Z,101082.91
2023-04-20T20:12:01.094Z,101075.34
2023-04-20T20:16:04.056Z,101082.13
2023-04-20T20:20:07.047Z,101083.28
2023-04-20T20:24:09.215Z,101083.19
2023-04-20T20:28:11.437Z,101079.50
2023-04-20T20:32:13.457Z,101088.22
2023-04-20T20:36:17.729Z,101092.13
2023-04-20T20:40:20.114Z,101080.78
2023-04-20T20:44:22.192Z,101089.91
2023-04-20T20:48:24.364Z,101092.34
2023-04-20T20:52:26.387Z,101088.09
2023-04-20T20:56:28.446Z,101090.38
2023-04-20T21:00:30.849Z,101090.38
2023-04-20T21:04:33.272Z,101093.97
2023-04-20T21:08:35.325Z,101090.94
2023-04-20T21:12:37.536Z,101087.47
2023-04-20T21:16:39.709Z,101087.88
2023-04-20T21:20:41.851Z,101088.56
2023-04-20T21:24:44.033Z,101089.56
2023-04-20T21:28:46.019Z,101095.69
2023-04-20T21:32:48.127Z,101092.66
2023-04-20T21:36:50.252Z,101090.81
2023-04-20T21:40:52.485Z,101086.31
2023-04-20T21:44:54.519Z,101095.97
2023-04-20T21:48:56.559Z,101086.56
2023-04-20T21:52:58.571Z,101084.09
2023-04-20T21:57:00.623Z,101085.13
2023-04-20T22:01:03.005Z,101083.94
2023-04-20T22:05:05.544Z,101089.97
2023-04-20T22:09:07.989Z,101083.59
2023-04-20T22:13:10.100Z,101094.59
2023-04-20T22:17:14.388Z,101093.66
2023-04-20T22:21:16.536Z,101093.28
2023-04-20T22:25:18.642Z,101093.34
2023-04-20T22:29:21.018Z,101092.50
2023-04-20T22:33:23.206Z,101111.13
2023-04-20T22:37:25.933Z,101095.91
2023-04-20T22:41:27.874Z,101097.78
2023-04-20T22:45:29.893Z,101104.72
2023-04-20T22:49:32.012Z,101101.06
2023-04-20T22:53:34.192Z,101096.22
2023-04-20T22:57:36.590Z,101096.28
2023-04-20T23:01:38.678Z,101092.44
2023-04-20T23:05:44.385Z,101094.66
2023-04-20T23:09:46.440Z,101093.41
2023-04-20T23:13:48.494Z,101101.16
2023-04-20T23:17:50.949Z,101098.28
2023-04-20T23:21:52.991Z,101092.78
2023-04-20T23:25:55.015Z,101094.50
2023-04-20T23:29:56.979Z,101097.00
2023-04-20T23:33:59.367Z,101092.59
2023-04-20T23:38:01.415Z,101093.03
2023-04-20T23:42:04.936Z,101098.34
2023-04-20T23:46:07.758Z,101091.88
2023-04-20T23:50:10.025Z,101090.13
2023-04-20T23:54:12.008Z,101088.88
2023-04-20T23:58:14.076Z,101085.00
